This is the latest recevied weather packets stored in our database for station/object KK7ISX. If no packets are shown the sender has not sent any weather packets the latest 10 day(s).
| Time | Temp. | Humidity | Pressure | Rain* | Wind** | Luminosity | Snow |
|---|---|---|---|---|---|---|---|
| 1778017717 | 23.89° C | 35% | 1009.1 hPa | 0 mm | - | 618 W/m² | - |
| 1778017414 | 23.89° C | 35% | 1009 hPa | 0 mm | - | 630 W/m² | - |
| 1778017111 | 23.89° C | 34% | 1009 hPa | 0 mm | - | 638 W/m² | - |
| 1778016809 | 23.89° C | 35% | 1009.2 hPa | 0 mm | - | 644 W/m² | - |
| 1778016505 | 23.33° C | 36% | 1009 hPa | 0 mm | - | 646 W/m² | - |
| 1778016202 | 23.89° C | 36% | 1009.3 hPa | 0 mm | - | 657 W/m² | - |
| 1778015898 | 23.89° C | 36% | 1009.2 hPa | 0 mm | - | 662 W/m² | - |
| 1778015596 | 23.33° C | 37% | 1009.4 hPa | 0 mm | - | 675 W/m² | - |
| 1778015292 | 23.89° C | 36% | 1009.4 hPa | 0 mm | - | 684 W/m² | - |
| 1778014989 | 23.33° C | 37% | 1009.6 hPa | 0 mm | - | 686 W/m² | - |
| 1778014686 | 22.78° C | 35% | 1009.4 hPa | 0 mm | - | 693 W/m² | - |
| 1778014385 | 23.33° C | 35% | 1009.6 hPa | 0 mm | - | 698 W/m² | - |
| 1778014081 | 23.33° C | 35% | 1009.7 hPa | 0 mm | - | 701 W/m² | - |
| 1778013779 | 23.33° C | 35% | 1009.7 hPa | 0 mm | - | 703 W/m² | - |
| 1778013475 | 23.33° C | 35% | 1009.7 hPa | 0 mm | - | 711 W/m² | - |
| 1778013173 | 22.78° C | 36% | 1009.8 hPa | 0 mm | - | 715 W/m² | - |
| 1778012868 | 22.78° C | 36% | 1009.6 hPa | 0 mm | - | 723 W/m² | - |
| 1778012564 | 22.78° C | 35% | 1009.9 hPa | 0 mm | - | 726 W/m² | - |
| 1778012261 | 22.22° C | 37% | 1010 hPa | 0 mm | - | 730 W/m² | - |
| 1778011959 | 22.78° C | 37% | 1009.9 hPa | 0 mm | - | 736 W/m² | - |
| 1778011657 | 22.78° C | 37% | 1010 hPa | 0 mm | - | 738 W/m² | - |
| 1778011354 | 22.78° C | 35% | 1009.8 hPa | 0 mm | - | 742 W/m² | - |
| 1778011049 | 22.78° C | 38% | 1010.2 hPa | 0 mm | - | 742 W/m² | - |
| 1778010747 | 22.22° C | 38% | 1010.3 hPa | 0 mm | - | 750 W/m² | - |
| 1778010444 | 21.67° C | 37% | 1010.2 hPa | 0 mm | - | 753 W/m² | - |
* Rain latest hour (hover to see other rain measurements)
** Current wind speed in m/s (hover to see current wind gust speed)